createdAt,value
2023-01-25T00:00:06.840Z,1.68
2023-01-25T00:01:06.796Z,1.74
2023-01-25T00:02:06.818Z,1.77
2023-01-25T00:03:06.745Z,1.83
2023-01-25T00:04:06.655Z,1.82
2023-01-25T00:05:07.027Z,1.82
2023-01-25T00:06:06.567Z,1.75
2023-01-25T00:07:06.524Z,1.72
2023-01-25T00:08:06.480Z,1.86
2023-01-25T00:09:06.441Z,1.71
2023-01-25T00:10:06.390Z,1.85
2023-01-25T00:11:06.366Z,1.65
2023-01-25T00:12:06.296Z,1.67
2023-01-25T00:13:06.239Z,1.67
2023-01-25T00:14:06.200Z,1.65
2023-01-25T00:15:06.580Z,1.71
2023-01-25T00:16:06.130Z,1.82
2023-01-25T00:17:06.078Z,1.71
2023-01-25T00:18:06.015Z,1.70
2023-01-25T00:19:05.967Z,1.64
2023-01-25T00:20:05.941Z,1.70
2023-01-25T00:21:05.874Z,1.64
2023-01-25T00:22:05.833Z,1.64
2023-01-25T00:23:05.797Z,1.61
2023-01-25T00:24:05.861Z,1.65
2023-01-25T00:25:06.074Z,1.57
2023-01-25T00:26:05.648Z,1.56
2023-01-25T00:27:05.607Z,1.64
2023-01-25T00:28:05.565Z,1.61
2023-01-25T00:29:05.502Z,1.50
2023-01-25T00:30:05.472Z,1.50
2023-01-25T00:31:05.412Z,1.42
2023-01-25T00:32:05.547Z,1.49
2023-01-25T00:33:05.319Z,1.54
2023-01-25T00:34:05.278Z,1.53
2023-01-25T00:35:05.703Z,1.50
2023-01-25T00:36:05.197Z,1.64
2023-01-25T00:37:05.134Z,1.57
2023-01-25T00:38:05.090Z,1.52
2023-01-25T00:39:05.045Z,1.57
2023-01-25T00:40:04.999Z,1.50
2023-01-25T00:41:04.949Z,1.53
2023-01-25T00:42:04.916Z,1.53
2023-01-25T00:43:04.870Z,1.57
2023-01-25T00:44:04.811Z,1.53
2023-01-25T00:45:04.816Z,1.60
2023-01-25T00:46:04.779Z,1.49
2023-01-25T00:47:04.677Z,1.56
2023-01-25T00:48:04.642Z,1.61
2023-01-25T00:49:04.579Z,1.63
2023-01-25T00:50:04.544Z,1.64
2023-01-25T00:51:04.491Z,1.57
2023-01-25T00:52:04.442Z,1.61
2023-01-25T00:53:04.398Z,1.52
2023-01-25T00:54:04.362Z,1.50
2023-01-25T00:55:04.314Z,1.49
2023-01-25T00:56:04.270Z,1.54
2023-01-25T00:57:04.206Z,1.52
2023-01-25T00:58:04.177Z,1.53
2023-01-25T00:59:04.117Z,1.49
2023-01-25T01:00:04.079Z,1.49
2023-01-25T01:01:04.073Z,1.50
2023-01-25T01:02:03.985Z,1.43
2023-01-25T01:03:03.929Z,1.57
2023-01-25T01:04:05.709Z,1.60
2023-01-25T01:05:03.857Z,1.54
2023-01-25T01:06:03.808Z,1.46
2023-01-25T01:07:03.773Z,1.42
2023-01-25T01:08:03.712Z,1.49
2023-01-25T01:09:03.656Z,1.60
2023-01-25T01:10:03.623Z,1.67
2023-01-25T01:11:03.560Z,1.74
2023-01-25T01:12:03.521Z,1.70
2023-01-25T01:13:03.467Z,1.81
2023-01-25T01:14:03.425Z,1.72
2023-01-25T01:15:03.375Z,1.61
2023-01-25T01:16:03.349Z,1.70
2023-01-25T01:17:03.344Z,1.56
2023-01-25T01:18:03.248Z,1.56
2023-01-25T01:19:03.198Z,1.61
2023-01-25T01:20:03.179Z,1.57
2023-01-25T01:21:03.099Z,1.61
2023-01-25T01:22:03.060Z,1.56
2023-01-25T01:23:03.020Z,1.57
2023-01-25T01:24:03.016Z,1.52
2023-01-25T01:25:02.943Z,1.64
2023-01-25T01:26:02.877Z,1.60
2023-01-25T01:27:02.839Z,1.54
2023-01-25T01:28:02.778Z,1.54
2023-01-25T01:29:02.745Z,1.53
2023-01-25T01:30:02.713Z,1.43
2023-01-25T01:31:02.646Z,1.54
2023-01-25T01:32:02.680Z,1.47
2023-01-25T01:33:02.555Z,1.46
2023-01-25T01:34:02.513Z,1.47
2023-01-25T01:35:02.452Z,1.50
2023-01-25T01:36:02.408Z,1.50
2023-01-25T01:37:02.371Z,1.50
2023-01-25T01:38:02.339Z,1.61
2023-01-25T01:39:02.271Z,1.60
2023-01-25T01:40:02.228Z,1.53
2023-01-25T01:41:02.176Z,1.56
2023-01-25T01:42:02.157Z,1.56
2023-01-25T01:43:02.106Z,1.65
2023-01-25T01:44:02.040Z,1.64
2023-01-25T01:45:01.990Z,1.57
2023-01-25T01:46:01.985Z,1.65
2023-01-25T01:47:01.902Z,1.61
2023-01-25T01:48:01.866Z,1.49
2023-01-25T01:49:01.821Z,1.49
2023-01-25T01:50:01.786Z,1.53
2023-01-25T01:51:01.718Z,1.54
2023-01-25T01:52:01.670Z,1.53
2023-01-25T01:53:01.621Z,1.49
2023-01-25T01:54:01.611Z,1.57
2023-01-25T01:55:01.549Z,1.50
2023-01-25T01:56:01.487Z,1.43
2023-01-25T01:57:01.440Z,1.43
2023-01-25T01:58:01.397Z,1.49
2023-01-25T01:59:01.349Z,1.57
2023-01-25T02:00:01.326Z,1.42
2023-01-25T02:01:01.260Z,1.50
2023-01-25T02:02:01.213Z,1.47
2023-01-25T02:03:01.180Z,1.44
2023-01-25T02:04:01.133Z,1.32
2023-01-25T02:05:01.085Z,1.47
2023-01-25T02:06:01.035Z,1.49
2023-01-25T02:07:00.977Z,1.39
2023-01-25T02:08:00.936Z,1.43
2023-01-25T02:09:00.894Z,1.38
2023-01-25T02:10:00.839Z,1.47
2023-01-25T02:11:00.791Z,1.36
2023-01-25T02:12:00.758Z,1.32
2023-01-25T02:13:00.708Z,1.50
2023-01-25T02:14:00.663Z,1.42
2023-01-25T02:15:00.628Z,1.38
2023-01-25T02:16:00.720Z,1.25
2023-01-25T02:17:00.518Z,1.36
2023-01-25T02:18:00.473Z,1.34
2023-01-25T02:19:00.438Z,1.38
2023-01-25T02:20:00.379Z,1.31
2023-01-25T02:21:00.332Z,1.39
2023-01-25T02:22:00.292Z,1.36
2023-01-25T02:23:00.240Z,1.36
2023-01-25T02:24:00.216Z,1.25
2023-01-25T02:25:00.161Z,1.29
2023-01-25T02:26:00.128Z,1.34
2023-01-25T02:27:00.052Z,1.31
2023-01-25T02:28:00.010Z,1.26
2023-01-25T02:28:59.965Z,1.20
2023-01-25T02:29:59.917Z,1.32
2023-01-25T02:30:59.891Z,1.38
2023-01-25T02:31:59.894Z,1.47
2023-01-25T02:32:59.778Z,1.39
2023-01-25T02:33:59.732Z,1.35
2023-01-25T02:34:59.683Z,1.35
2023-01-25T02:35:59.634Z,1.42
2023-01-25T02:36:59.597Z,1.38
2023-01-25T02:37:59.560Z,1.39
2023-01-25T02:38:59.495Z,1.47
2023-01-25T02:39:59.447Z,1.42
2023-01-25T02:40:59.404Z,1.36
2023-01-25T02:41:59.366Z,1.39
2023-01-25T02:42:59.316Z,1.44
2023-01-25T02:43:59.281Z,1.38
2023-01-25T02:44:59.216Z,1.47
2023-01-25T02:45:59.213Z,1.50
2023-01-25T02:46:59.124Z,1.50
2023-01-25T02:47:59.095Z,1.46
2023-01-25T02:48:59.038Z,1.31
2023-01-25T02:49:58.992Z,1.46
2023-01-25T02:50:58.948Z,1.61
2023-01-25T02:51:58.901Z,1.50
2023-01-25T02:52:58.849Z,1.56
2023-01-25T02:53:58.814Z,1.50
2023-01-25T02:54:58.757Z,1.57
2023-01-25T02:55:58.713Z,1.46
2023-01-25T02:56:58.667Z,1.64
2023-01-25T02:57:58.619Z,1.53
2023-01-25T02:58:58.570Z,1.53
2023-01-25T02:59:58.549Z,1.49
2023-01-25T03:00:58.477Z,1.49
2023-01-25T03:01:58.526Z,1.49
2023-01-25T03:02:58.488Z,1.53
2023-01-25T03:03:58.362Z,1.60
2023-01-25T03:04:58.297Z,1.60
2023-01-25T03:05:58.254Z,1.57
2023-01-25T03:06:58.202Z,1.53
2023-01-25T03:07:58.162Z,1.54
2023-01-25T03:08:58.113Z,1.67
2023-01-25T03:09:58.080Z,1.64
2023-01-25T03:10:58.035Z,1.57
2023-01-25T03:11:57.974Z,1.67
2023-01-25T03:12:57.954Z,1.53
2023-01-25T03:13:57.882Z,1.38
2023-01-25T03:14:57.835Z,1.54
2023-01-25T03:15:57.845Z,1.43
2023-01-25T03:16:57.740Z,1.49
2023-01-25T03:17:57.701Z,1.38
2023-01-25T03:18:57.669Z,1.49
2023-01-25T03:19:57.617Z,1.42
2023-01-25T03:20:57.568Z,1.43
2023-01-25T03:21:57.519Z,1.39
2023-01-25T03:22:57.470Z,1.36
2023-01-25T03:23:57.456Z,1.28
2023-01-25T03:24:57.404Z,1.43
2023-01-25T03:25:57.331Z,1.38
2023-01-25T03:26:57.296Z,1.42
2023-01-25T03:27:57.246Z,1.42
2023-01-25T03:28:57.207Z,1.44
2023-01-25T03:29:57.144Z,1.46
2023-01-25T03:30:57.146Z,1.39
2023-01-25T03:31:57.156Z,1.43
2023-01-25T03:32:57.082Z,1.43
2023-01-25T03:33:56.967Z,1.44
2023-01-25T03:34:56.965Z,1.38
2023-01-25T03:35:56.906Z,1.44
2023-01-25T03:36:56.818Z,1.39
2023-01-25T03:37:56.779Z,1.36
2023-01-25T03:38:56.740Z,1.42
2023-01-25T03:39:56.686Z,1.47
2023-01-25T03:40:56.633Z,1.42
2023-01-25T03:41:56.592Z,1.38
2023-01-25T03:42:56.555Z,1.38
2023-01-25T03:43:56.502Z,1.39
2023-01-25T03:44:56.469Z,1.46
2023-01-25T03:45:56.415Z,1.32
2023-01-25T03:46:56.401Z,1.36
2023-01-25T03:47:56.319Z,1.42
2023-01-25T03:48:56.266Z,1.34
2023-01-25T03:49:56.270Z,1.42
2023-01-25T03:50:56.175Z,1.43
2023-01-25T03:51:56.131Z,1.31
2023-01-25T03:52:56.081Z,1.36
2023-01-25T03:53:56.051Z,1.38
2023-01-25T03:54:56.003Z,1.24
2023-01-25T03:55:55.947Z,1.32
2023-01-25T03:56:55.902Z,1.34
2023-01-25T03:57:55.862Z,1.24
2023-01-25T03:58:55.807Z,1.18
2023-01-25T03:59:55.766Z,1.26
2023-01-25T04:00:55.846Z,1.31
2023-01-25T04:01:55.768Z,1.29
2023-01-25T04:02:55.629Z,1.38
2023-01-25T04:03:55.575Z,1.44
2023-01-25T04:04:55.531Z,1.35
2023-01-25T04:05:55.489Z,1.38
2023-01-25T04:06:55.449Z,1.38
2023-01-25T04:07:55.402Z,1.36
2023-01-25T04:08:55.343Z,1.34
2023-01-25T04:09:55.303Z,1.39
2023-01-25T04:10:55.255Z,1.38
2023-01-25T04:11:55.206Z,1.35
2023-01-25T04:12:55.168Z,1.43
2023-01-25T04:13:55.117Z,1.46
2023-01-25T04:14:55.070Z,1.32
2023-01-25T04:15:55.021Z,1.32
2023-01-25T04:16:55.057Z,1.29
2023-01-25T04:17:54.939Z,1.31
2023-01-25T04:18:54.902Z,1.42
2023-01-25T04:19:54.837Z,1.35
2023-01-25T04:20:54.789Z,1.39
2023-01-25T04:21:54.745Z,1.35
2023-01-25T04:22:54.698Z,1.31
2023-01-25T04:23:54.708Z,1.35
2023-01-25T04:24:54.617Z,1.28
2023-01-25T04:25:54.575Z,1.38
2023-01-25T04:26:54.516Z,1.38
2023-01-25T04:27:54.479Z,1.38
2023-01-25T04:28:54.426Z,1.34
2023-01-25T04:29:54.376Z,1.42
2023-01-25T04:30:54.353Z,1.34
2023-01-25T04:31:54.353Z,1.31
2023-01-25T04:32:54.231Z,1.35
2023-01-25T04:33:54.187Z,1.21
2023-01-25T04:34:54.141Z,1.25
2023-01-25T04:35:54.120Z,1.20
2023-01-25T04:36:54.051Z,1.29
2023-01-25T04:37:54.009Z,1.26
2023-01-25T04:38:53.961Z,1.28
2023-01-25T04:39:53.909Z,1.28
2023-01-25T04:40:53.870Z,1.34
2023-01-25T04:41:53.827Z,1.31
2023-01-25T04:42:53.792Z,1.20
2023-01-25T04:44:03.210Z,1.14
2023-01-25T04:44:53.677Z,1.20
2023-01-25T04:45:53.693Z,1.17
2023-01-25T04:46:53.602Z,1.18
2023-01-25T04:47:53.541Z,1.20
2023-01-25T04:48:53.498Z,1.17
2023-01-25T04:49:53.459Z,1.21
2023-01-25T04:50:53.418Z,1.17
2023-01-25T04:51:53.353Z,1.34
2023-01-25T04:52:53.321Z,1.28
2023-01-25T04:53:53.265Z,1.24
2023-01-25T04:54:53.223Z,1.25
2023-01-25T04:55:53.178Z,1.39
2023-01-25T04:56:53.128Z,1.29
2023-01-25T04:57:53.085Z,1.31
2023-01-25T04:58:53.046Z,1.34
2023-01-25T04:59:52.980Z,1.28
2023-01-25T05:00:52.981Z,1.36
2023-01-25T05:01:52.891Z,1.38
2023-01-25T05:02:52.849Z,1.36
2023-01-25T05:03:52.811Z,1.36
2023-01-25T05:04:52.757Z,1.42
2023-01-25T05:05:52.706Z,1.39
2023-01-25T05:06:52.664Z,1.32
2023-01-25T05:07:52.610Z,1.36
2023-01-25T05:08:52.582Z,1.28
2023-01-25T05:09:52.520Z,1.25
2023-01-25T05:10:52.482Z,1.29
2023-01-25T05:11:52.443Z,1.31
2023-01-25T05:12:52.386Z,1.32
2023-01-25T05:13:52.341Z,1.28
2023-01-25T05:14:52.305Z,1.32
2023-01-25T05:15:52.247Z,1.32
2023-01-25T05:16:52.291Z,1.38
2023-01-25T05:17:52.151Z,1.32
2023-01-25T05:18:52.108Z,1.31
2023-01-25T05:19:52.082Z,1.34
2023-01-25T05:20:52.035Z,1.32
2023-01-25T05:21:51.968Z,1.29
2023-01-25T05:22:51.922Z,1.35
2023-01-25T05:23:51.903Z,1.31
2023-01-25T05:24:51.831Z,1.29
2023-01-25T05:25:51.786Z,1.32
2023-01-25T05:26:51.747Z,1.35
2023-01-25T05:27:51.693Z,1.31
2023-01-25T05:28:51.649Z,1.25
2023-01-25T05:29:51.606Z,1.26
2023-01-25T05:30:51.629Z,1.43
2023-01-25T05:31:51.552Z,1.61
2023-01-25T05:32:51.465Z,1.74
2023-01-25T05:33:51.414Z,1.82
2023-01-25T05:34:51.391Z,1.79
2023-01-25T05:35:51.340Z,1.75
2023-01-25T05:36:51.277Z,1.75
2023-01-25T05:37:51.238Z,1.72
2023-01-25T05:38:51.187Z,1.61
2023-01-25T05:39:51.729Z,1.74
2023-01-25T05:40:51.100Z,1.86
2023-01-25T05:41:51.043Z,1.92
2023-01-25T05:42:50.996Z,1.98
2023-01-25T05:43:50.965Z,1.83
2023-01-25T05:44:50.908Z,1.71
2023-01-25T05:45:50.905Z,1.72
2023-01-25T05:46:50.820Z,1.63
2023-01-25T05:47:50.762Z,1.61
2023-01-25T05:48:50.727Z,1.63
2023-01-25T05:49:50.679Z,1.63
2023-01-25T05:50:50.630Z,1.64
2023-01-25T05:51:50.577Z,1.60
2023-01-25T05:52:50.548Z,1.50
2023-01-25T05:53:50.492Z,1.60
2023-01-25T05:54:50.449Z,1.56
2023-01-25T05:55:50.407Z,1.68
2023-01-25T05:56:50.353Z,1.46
2023-01-25T05:57:50.304Z,1.60
2023-01-25T05:58:50.269Z,1.54
2023-01-25T05:59:50.214Z,1.47
2023-01-25T06:00:50.172Z,1.54
2023-01-25T06:01:50.138Z,1.54
2023-01-25T06:02:50.218Z,1.54
2023-01-25T06:03:50.028Z,1.56
2023-01-25T06:04:49.993Z,1.60
2023-01-25T06:05:49.932Z,1.68
2023-01-25T06:06:49.895Z,1.52
2023-01-25T06:07:49.850Z,1.56
2023-01-25T06:08:49.795Z,1.54
2023-01-25T06:09:49.747Z,1.52
2023-01-25T06:10:49.716Z,1.50
2023-01-25T06:11:49.654Z,1.43
2023-01-25T06:12:50.247Z,1.46
2023-01-25T06:13:49.573Z,1.36
2023-01-25T06:14:49.526Z,1.43
2023-01-25T06:15:49.498Z,1.44
2023-01-25T06:16:49.438Z,1.43
2023-01-25T06:17:49.377Z,1.38
2023-01-25T06:18:49.335Z,1.49
2023-01-25T06:19:49.291Z,1.60
2023-01-25T06:20:49.244Z,1.46
2023-01-25T06:21:49.195Z,1.57
2023-01-25T06:22:49.176Z,1.50
2023-01-25T06:23:49.172Z,1.39
2023-01-25T06:24:49.061Z,1.39
2023-01-25T06:25:49.046Z,1.44
2023-01-25T06:26:48.977Z,1.49
2023-01-25T06:27:48.918Z,1.38
2023-01-25T06:28:48.895Z,1.47
2023-01-25T06:29:48.829Z,1.46
2023-01-25T06:30:48.814Z,1.39
2023-01-25T06:31:48.751Z,1.43
2023-01-25T06:32:48.689Z,1.53
2023-01-25T06:33:48.662Z,1.49
2023-01-25T06:34:48.620Z,1.38
2023-01-25T06:35:48.550Z,1.43
2023-01-25T06:36:48.505Z,1.47
2023-01-25T06:37:48.455Z,1.50
2023-01-25T06:38:48.416Z,1.46
2023-01-25T06:39:48.375Z,1.42
2023-01-25T06:40:48.323Z,1.39
2023-01-25T06:41:48.275Z,1.42
2023-01-25T06:42:48.282Z,1.43
2023-01-25T06:43:48.276Z,1.35
2023-01-25T06:44:48.135Z,1.38
2023-01-25T06:45:48.106Z,1.35
2023-01-25T06:46:48.099Z,1.35
2023-01-25T06:47:48.003Z,1.34
2023-01-25T06:48:47.957Z,1.36
2023-01-25T06:49:47.911Z,1.38
2023-01-25T06:50:47.868Z,1.38
2023-01-25T06:51:47.823Z,1.47
2023-01-25T06:52:47.767Z,1.44
2023-01-25T06:53:47.721Z,1.49
2023-01-25T06:54:47.674Z,1.44
2023-01-25T06:55:47.626Z,1.47
2023-01-25T06:56:47.623Z,1.54
2023-01-25T06:57:47.543Z,1.53
2023-01-25T06:58:47.512Z,1.46
2023-01-25T06:59:47.445Z,1.60
2023-01-25T07:00:47.402Z,1.47
2023-01-25T07:01:47.392Z,1.53
2023-01-25T07:02:47.349Z,1.50
2023-01-25T07:03:47.271Z,1.46
2023-01-25T07:04:47.222Z,1.46
2023-01-25T07:05:47.177Z,1.47
2023-01-25T07:06:47.126Z,1.49
2023-01-25T07:07:47.076Z,1.57
2023-01-25T07:08:47.044Z,1.44
2023-01-25T07:09:46.985Z,1.49
2023-01-25T07:10:47.006Z,1.39
2023-01-25T07:11:46.894Z,1.44
2023-01-25T07:12:46.860Z,1.47
2023-01-25T07:13:46.830Z,1.54
2023-01-25T07:14:46.758Z,1.60
2023-01-25T07:15:46.735Z,1.46
2023-01-25T07:16:46.684Z,1.50
2023-01-25T07:17:46.613Z,1.49
2023-01-25T07:18:46.574Z,1.53
2023-01-25T07:19:46.542Z,1.49
2023-01-25T07:20:46.480Z,1.44
2023-01-25T07:21:46.441Z,1.49
2023-01-25T07:22:46.384Z,1.44
2023-01-25T07:23:46.396Z,1.47
2023-01-25T07:24:46.295Z,1.44
2023-01-25T07:25:46.246Z,1.32
2023-01-25T07:26:46.213Z,1.47
2023-01-25T07:27:46.152Z,1.46
2023-01-25T07:28:46.122Z,1.46
2023-01-25T07:29:46.061Z,1.38
2023-01-25T07:30:46.018Z,1.49
2023-01-25T07:31:46.054Z,1.50
2023-01-25T07:32:45.946Z,1.50
2023-01-25T07:33:45.876Z,1.50
2023-01-25T07:34:45.832Z,1.54
2023-01-25T07:35:45.784Z,1.54
2023-01-25T07:36:45.784Z,1.47
2023-01-25T07:37:45.693Z,1.57
2023-01-25T07:38:45.667Z,1.50
2023-01-25T07:39:45.615Z,1.47
2023-01-25T07:40:45.557Z,1.52
2023-01-25T07:41:45.506Z,1.64
2023-01-25T07:42:45.468Z,1.53
2023-01-25T07:43:45.414Z,1.52
2023-01-25T07:44:45.382Z,1.57
2023-01-25T07:45:45.323Z,1.53
2023-01-25T07:46:45.291Z,1.54
2023-01-25T07:47:45.233Z,1.49
2023-01-25T07:48:45.213Z,1.52
2023-01-25T07:49:45.139Z,1.53
2023-01-25T07:50:45.101Z,1.49
2023-01-25T07:51:45.059Z,1.46
2023-01-25T07:52:45.007Z,1.44
2023-01-25T07:53:44.965Z,1.46
2023-01-25T07:54:44.921Z,1.56
2023-01-25T07:55:44.882Z,1.70
2023-01-25T07:56:44.837Z,1.61
2023-01-25T07:57:44.769Z,1.44
2023-01-25T07:58:44.726Z,1.44
2023-01-25T07:59:44.685Z,1.53
2023-01-25T08:00:44.656Z,1.39
2023-01-25T08:01:44.614Z,1.49
2023-01-25T08:02:44.564Z,1.43
2023-01-25T08:03:44.518Z,1.36
2023-01-25T08:04:44.456Z,1.28
2023-01-25T08:05:44.406Z,1.36
2023-01-25T08:06:44.364Z,1.36
2023-01-25T08:07:44.314Z,1.31
2023-01-25T08:08:44.271Z,1.31
2023-01-25T08:09:44.233Z,1.39
2023-01-25T08:10:44.170Z,1.31
2023-01-25T08:11:44.129Z,1.32
2023-01-25T08:12:44.081Z,1.46
2023-01-25T08:13:44.036Z,1.43
2023-01-25T08:14:43.989Z,1.49
2023-01-25T08:15:43.955Z,1.38
2023-01-25T08:16:43.925Z,1.44
2023-01-25T08:17:43.859Z,1.42
2023-01-25T08:18:43.812Z,1.42
2023-01-25T08:19:43.758Z,1.39
2023-01-25T08:20:43.714Z,1.43
2023-01-25T08:21:43.682Z,1.39
2023-01-25T08:22:43.638Z,1.46
2023-01-25T08:23:43.574Z,1.36
2023-01-25T08:24:43.647Z,1.32
2023-01-25T08:25:43.495Z,1.42
2023-01-25T08:26:43.464Z,1.36
2023-01-25T08:27:43.396Z,1.44
2023-01-25T08:28:43.358Z,1.44
2023-01-25T08:29:43.295Z,1.44
2023-01-25T08:30:55.766Z,1.38
2023-01-25T08:31:43.234Z,1.47
2023-01-25T08:32:43.155Z,1.50
2023-01-25T08:33:43.120Z,1.43
2023-01-25T08:34:43.065Z,1.56
2023-01-25T08:35:43.044Z,1.56
2023-01-25T08:36:42.984Z,1.61
2023-01-25T08:37:43.009Z,1.54
2023-01-25T08:38:42.884Z,1.68
2023-01-25T08:39:42.834Z,1.56
2023-01-25T08:40:42.788Z,1.60
2023-01-25T08:41:42.785Z,1.54
2023-01-25T08:42:42.696Z,1.60
2023-01-25T08:43:42.652Z,1.67
2023-01-25T08:44:42.608Z,1.64
2023-01-25T08:45:42.557Z,1.61
2023-01-25T08:46:42.543Z,1.53
2023-01-25T08:47:42.479Z,1.60
2023-01-25T08:48:42.420Z,1.63
2023-01-25T08:49:42.389Z,1.71
2023-01-25T08:50:42.329Z,1.61
2023-01-25T08:51:42.280Z,1.64
2023-01-25T08:52:42.239Z,1.54
2023-01-25T08:53:42.193Z,1.64
2023-01-25T08:54:42.146Z,1.61
2023-01-25T08:55:42.116Z,1.64
2023-01-25T08:56:42.045Z,1.64
2023-01-25T08:57:42.013Z,1.65
2023-01-25T08:58:41.957Z,1.57
2023-01-25T08:59:41.918Z,1.57
2023-01-25T09:00:41.866Z,1.57
2023-01-25T09:01:41.837Z,1.65
2023-01-25T09:02:41.772Z,1.65
2023-01-25T09:03:41.771Z,1.60
2023-01-25T09:04:41.689Z,1.61
2023-01-25T09:05:41.648Z,1.67
2023-01-25T09:06:41.600Z,1.60
2023-01-25T09:07:41.559Z,1.50
2023-01-25T09:08:41.503Z,1.52
2023-01-25T09:09:41.461Z,1.56
2023-01-25T09:10:41.409Z,1.54
2023-01-25T09:11:41.361Z,1.52
2023-01-25T09:12:41.326Z,1.53
2023-01-25T09:13:41.272Z,1.49
2023-01-25T09:14:41.228Z,1.50
2023-01-25T09:15:41.179Z,1.53
2023-01-25T09:16:41.131Z,1.54
2023-01-25T09:17:41.091Z,1.61
2023-01-25T09:18:41.052Z,1.57
2023-01-25T09:19:41.004Z,1.63
2023-01-25T09:20:40.950Z,1.67
2023-01-25T09:21:40.929Z,1.54
2023-01-25T09:22:40.853Z,1.71
2023-01-25T09:23:51.001Z,1.60
2023-01-25T09:24:40.806Z,1.61
2023-01-25T09:25:40.728Z,1.61
2023-01-25T09:26:40.896Z,1.52
2023-01-25T09:27:40.628Z,1.44
2023-01-25T09:28:40.578Z,1.52
2023-01-25T09:29:43.774Z,1.47
2023-01-25T09:30:47.178Z,1.53
2023-01-25T09:31:41.118Z,1.54
2023-01-25T09:32:40.504Z,1.50
2023-01-25T09:33:40.354Z,1.60
2023-01-25T09:34:40.301Z,1.56
2023-01-25T09:35:40.263Z,1.60
2023-01-25T09:36:40.261Z,1.53
2023-01-25T09:37:40.191Z,1.52
2023-01-25T09:38:40.137Z,1.52
2023-01-25T09:39:40.084Z,1.57
2023-01-25T09:40:40.033Z,1.52
2023-01-25T09:41:39.987Z,1.63
2023-01-25T09:42:39.942Z,1.56
2023-01-25T09:43:39.892Z,1.61
2023-01-25T09:44:39.845Z,1.64
2023-01-25T09:45:39.799Z,1.61
2023-01-25T09:46:39.809Z,1.60
2023-01-25T09:47:39.721Z,1.61
2023-01-25T09:48:39.658Z,1.64
2023-01-25T09:49:39.624Z,1.74
2023-01-25T09:50:39.573Z,1.57
2023-01-25T09:51:39.527Z,1.68
2023-01-25T09:52:39.511Z,1.77
2023-01-25T09:53:39.439Z,1.75
2023-01-25T09:54:46.630Z,1.82
2023-01-25T09:55:39.345Z,1.86
2023-01-25T09:56:39.294Z,1.82
2023-01-25T09:57:39.248Z,1.82
2023-01-25T09:58:39.220Z,1.88
2023-01-25T09:59:39.166Z,1.85
2023-01-25T10:00:39.125Z,1.89
2023-01-25T10:01:39.469Z,1.93
2023-01-25T10:02:39.109Z,1.86
2023-01-25T10:03:38.990Z,2.04
2023-01-25T10:04:38.938Z,2.00
2023-01-25T10:05:38.884Z,1.92
2023-01-25T10:06:40.619Z,1.86
2023-01-25T10:07:38.789Z,1.92
2023-01-25T10:08:38.766Z,1.89
2023-01-25T10:09:38.704Z,1.89
2023-01-25T10:10:38.655Z,1.83
2023-01-25T10:11:38.615Z,1.90
2023-01-25T10:12:38.560Z,1.86
2023-01-25T10:13:38.537Z,1.88
2023-01-25T10:14:39.237Z,1.90
2023-01-25T10:15:38.497Z,1.89
2023-01-25T10:16:38.419Z,1.90
2023-01-25T10:17:38.346Z,1.85
2023-01-25T10:18:38.328Z,1.86
2023-01-25T10:19:38.782Z,1.90
2023-01-25T10:20:38.215Z,1.90
2023-01-25T10:21:38.154Z,1.82
2023-01-25T10:22:38.117Z,1.92
2023-01-25T10:23:38.062Z,1.93
2023-01-25T10:24:38.020Z,1.86
2023-01-25T10:25:38.000Z,1.98
2023-01-25T10:26:37.929Z,2.01
2023-01-25T10:27:37.882Z,2.08
2023-01-25T10:28:37.839Z,2.04
2023-01-25T10:29:37.787Z,2.04
2023-01-25T10:30:37.769Z,2.04
2023-01-25T10:31:37.725Z,2.14
2023-01-25T10:32:47.554Z,2.08
2023-01-25T10:33:38.704Z,2.04
2023-01-25T10:34:54.360Z,2.02
2023-01-25T10:35:41.251Z,2.08
2023-01-25T10:36:37.481Z,2.11
2023-01-25T10:37:37.442Z,2.09
2023-01-25T10:38:37.376Z,2.14
2023-01-25T10:39:37.333Z,2.02
2023-01-25T10:40:37.297Z,1.98
2023-01-25T10:41:37.246Z,2.01
2023-01-25T10:42:37.201Z,2.05
2023-01-25T10:43:37.173Z,2.05
2023-01-25T10:44:46.300Z,2.12
2023-01-25T10:45:37.059Z,2.12
2023-01-25T10:46:37.021Z,2.20
2023-01-25T10:47:36.966Z,2.14
2023-01-25T10:48:36.930Z,2.25
2023-01-25T10:49:36.885Z,2.22
2023-01-25T10:50:36.833Z,2.15
2023-01-25T10:51:36.784Z,2.12
2023-01-25T10:52:36.766Z,2.15
2023-01-25T10:53:36.705Z,2.12
2023-01-25T10:54:36.648Z,2.12
2023-01-25T10:55:36.602Z,2.11
2023-01-25T10:56:36.558Z,2.09
2023-01-25T10:57:36.515Z,2.07
2023-01-25T10:58:36.476Z,1.98
2023-01-25T10:59:36.426Z,1.95
2023-01-25T11:00:36.373Z,1.89
2023-01-25T11:01:36.383Z,1.95
2023-01-25T11:02:36.317Z,2.00
2023-01-25T11:03:36.284Z,2.04
2023-01-25T11:04:36.229Z,2.01
2023-01-25T11:05:36.150Z,2.07
2023-01-25T11:06:36.109Z,2.12
2023-01-25T11:07:36.059Z,2.00
2023-01-25T11:08:36.019Z,2.11
2023-01-25T11:09:35.973Z,2.07
2023-01-25T11:10:35.922Z,2.14
2023-01-25T11:11:35.876Z,2.11
2023-01-25T11:12:35.827Z,2.14
2023-01-25T11:13:35.791Z,2.19
2023-01-25T11:14:35.735Z,2.19
2023-01-25T11:15:35.729Z,2.20
2023-01-25T11:16:35.644Z,2.12
2023-01-25T11:17:35.600Z,2.08
2023-01-25T11:18:35.575Z,2.04
2023-01-25T11:19:35.534Z,2.15
2023-01-25T11:20:35.480Z,2.04
2023-01-25T11:21:35.442Z,2.18
2023-01-25T11:22:35.371Z,2.20
2023-01-25T11:23:35.335Z,2.05
2023-01-25T11:24:35.284Z,1.98
2023-01-25T11:25:35.254Z,1.82
2023-01-25T11:26:35.189Z,1.83
2023-01-25T11:27:35.147Z,1.77
2023-01-25T11:28:35.105Z,2.01
2023-01-25T11:29:35.059Z,1.88
2023-01-25T11:30:35.011Z,1.92
2023-01-25T11:31:35.439Z,1.86
2023-01-25T11:32:34.923Z,2.00
2023-01-25T11:33:34.892Z,1.98
2023-01-25T11:34:34.823Z,1.90
2023-01-25T11:35:34.780Z,1.90
2023-01-25T11:36:34.734Z,2.07
2023-01-25T11:37:34.708Z,2.05
2023-01-25T11:38:34.644Z,2.00
2023-01-25T11:39:34.598Z,2.11
2023-01-25T11:40:34.553Z,2.02
2023-01-25T11:41:35.235Z,2.08
2023-01-25T11:42:34.482Z,2.12
2023-01-25T11:43:34.447Z,2.14
2023-01-25T11:44:34.370Z,2.22
2023-01-25T11:45:34.325Z,2.09
2023-01-25T11:46:34.299Z,2.00
2023-01-25T11:47:34.258Z,1.88
2023-01-25T11:48:34.190Z,1.77
2023-01-25T11:49:34.827Z,1.74
2023-01-25T11:50:34.099Z,1.89
2023-01-25T11:51:34.049Z,1.77
2023-01-25T11:52:34.004Z,1.72
2023-01-25T11:53:33.960Z,1.72
2023-01-25T11:54:33.927Z,1.61
2023-01-25T11:55:33.876Z,1.74
2023-01-25T11:56:33.828Z,1.60
2023-01-25T11:57:33.781Z,1.71
2023-01-25T11:58:33.729Z,1.81
2023-01-25T11:59:33.691Z,1.81
2023-01-25T12:00:33.652Z,1.89
2023-01-25T12:01:33.635Z,1.89
2023-01-25T12:02:33.583Z,1.95
2023-01-25T12:03:33.556Z,1.92
2023-01-25T12:04:33.460Z,2.00
2023-01-25T12:05:33.427Z,2.05
2023-01-25T12:06:33.382Z,2.05
2023-01-25T12:07:33.323Z,2.07
2023-01-25T12:08:33.270Z,2.04
2023-01-25T12:09:33.229Z,2.04
2023-01-25T12:10:33.182Z,1.93
2023-01-25T12:11:33.144Z,2.01
2023-01-25T12:12:33.096Z,2.07
2023-01-25T12:13:33.053Z,2.05
2023-01-25T12:14:33.018Z,1.95
2023-01-25T12:15:32.986Z,2.08
2023-01-25T12:16:32.908Z,2.11
2023-01-25T12:17:32.864Z,2.25
2023-01-25T12:18:32.827Z,2.11
2023-01-25T12:19:32.774Z,2.19
2023-01-25T12:20:32.733Z,2.02
2023-01-25T12:21:32.687Z,1.98
2023-01-25T12:22:32.642Z,1.90
2023-01-25T12:23:32.600Z,1.89
2023-01-25T12:24:32.559Z,1.75
2023-01-25T12:25:32.499Z,1.77
2023-01-25T12:26:32.459Z,1.79
2023-01-25T12:27:32.418Z,1.81
2023-01-25T12:28:32.682Z,1.82
2023-01-25T12:29:32.323Z,1.86
2023-01-25T12:30:32.337Z,1.86
2023-01-25T12:31:32.282Z,1.81
2023-01-25T12:32:32.185Z,1.77
2023-01-25T12:33:32.135Z,1.81
2023-01-25T12:34:32.094Z,1.77
2023-01-25T12:35:32.044Z,1.79
2023-01-25T12:36:32.013Z,1.79
2023-01-25T12:37:31.952Z,1.77
2023-01-25T12:38:31.905Z,1.86
2023-01-25T12:39:31.864Z,1.79
2023-01-25T12:40:31.823Z,1.86
2023-01-25T12:41:31.785Z,2.00
2023-01-25T12:42:31.724Z,1.95
2023-01-25T12:43:31.686Z,1.92
2023-01-25T12:44:31.647Z,1.89
2023-01-25T12:45:31.598Z,1.95
2023-01-25T12:46:31.549Z,1.95
2023-01-25T12:47:31.507Z,2.02
2023-01-25T12:48:31.479Z,2.00
2023-01-25T12:49:31.409Z,2.00
2023-01-25T12:50:31.367Z,1.95
2023-01-25T12:51:31.317Z,1.98
2023-01-25T12:52:31.266Z,2.00
2023-01-25T12:53:31.241Z,2.02
2023-01-25T12:54:31.178Z,1.88
2023-01-25T12:55:31.141Z,1.82
2023-01-25T12:56:31.086Z,1.89
2023-01-25T12:57:31.046Z,1.88
2023-01-25T12:58:37.760Z,1.86
2023-01-25T12:59:30.967Z,1.79
2023-01-25T13:00:32.712Z,1.77
2023-01-25T13:01:30.876Z,1.81
2023-01-25T13:02:30.819Z,1.82
2023-01-25T13:03:30.771Z,1.81
2023-01-25T13:04:30.722Z,1.79
2023-01-25T13:05:30.683Z,1.72
2023-01-25T13:06:30.633Z,1.81
2023-01-25T13:07:30.588Z,1.85
2023-01-25T13:08:32.355Z,1.74
2023-01-25T13:09:30.513Z,1.83
2023-01-25T13:10:30.472Z,1.82
2023-01-25T13:11:30.421Z,1.79
2023-01-25T13:12:30.356Z,1.83
2023-01-25T13:13:30.311Z,1.90
2023-01-25T13:14:30.267Z,1.82
2023-01-25T13:15:30.226Z,1.85
2023-01-25T13:16:30.259Z,1.83
2023-01-25T13:17:30.136Z,1.83